Time;durP1;ratioP1;P1;durP2;ratioP2;P2;SDS_P1;SDS_P2;PMS_P1;PMS_P2;Temp;Humidity;BMP_temperature;BMP_pressure;BME280_temperature;BME280_humidity;BME280_pressure;Samples;Min_cycle;Max_cycle;Signal;HPM_P1;HPM_P2
2021/05/16 00:00:14;;;;;;;;;;;;;;;11.72;86.63;98905.89;1728226;83;20168;-65
2021/05/16 00:02:41;;;;;;;;;;;;;;;11.67;87.35;98904.28;1721657;82;20485;-65
2021/05/16 00:05:08;;;;;;;;;;;;;;;11.65;87.62;98907.58;1724099;82;20147;-64
2021/05/16 00:07:34;;;;;;;;;;;;;;;11.62;87.52;98903.47;1698060;83;20151;-65
2021/05/16 00:10:03;;;;;;;;;;;;;;;11.58;88.04;98907.98;1727262;83;20171;-64
2021/05/16 00:12:30;;;;;;;;;;;;;;;11.54;88.80;98906.64;1726943;82;20159;-65
2021/05/16 00:14:56;;;;;;;;;;;;;;;11.51;89.23;98907.02;1725131;82;20143;-65
2021/05/16 00:17:23;;;;;;;;;;;;;;;11.52;89.40;98908.64;1716169;82;20151;-65
2021/05/16 00:19:49;;;;;;;;;;;;;;;11.53;89.52;98910.31;1719904;82;20164;-65
2021/05/16 00:22:16;;;;;;;;;;;;;;;11.51;89.78;98906.50;1727123;82;20139;-65
2021/05/16 00:24:42;;;;;;;;;;;;;;;11.49;89.93;98907.69;1726928;82;20478;-65
2021/05/16 00:27:09;;;;;;;;;;;;;;;11.49;90.69;98909.02;1723178;82;20139;-64
2021/05/16 00:29:36;;;;;;;;;;;;;;;11.48;90.97;98917.94;1723698;82;20494;-64
2021/05/16 00:32:04;;;;;;;;;;;;;;;11.46;91.38;98918.10;1729060;82;20151;-64
2021/05/16 00:34:30;;;;;;;;;;;;;;;11.45;91.91;98916.47;1716044;82;20179;-64
2021/05/16 00:36:57;;;;;;;;;;;;;;;11.52;92.09;98915.27;1732981;82;20167;-64
2021/05/16 00:39:23;;;;;;;;;;;;;;;11.56;92.27;98914.77;1715168;82;20163;-65
2021/05/16 00:41:51;;;;;;;;;;;;;;;11.59;92.00;98923.66;1719133;82;20206;-64
2021/05/16 00:44:22;;;;;;;;;;;;;;;11.59;91.58;98926.82;1721130;83;20147;-65
2021/05/16 00:46:49;;;;;;;;;;;;;;;11.56;91.94;98917.89;1722783;82;20155;-64
2021/05/16 00:49:16;;;;;;;;;;;;;;;11.52;91.92;98913.94;1723175;83;20501;-64
2021/05/16 00:51:43;;;;;;;;;;;;;;;11.50;92.65;98920.73;1721118;82;20246;-64
2021/05/16 00:54:10;;;;;;;;;;;;;;;11.48;92.88;98916.61;1694277;83;20164;-64
2021/05/16 00:56:37;;;;;;;;;;;;;;;11.46;92.16;98925.57;1725106;82;20187;-65
2021/05/16 00:59:04;;;;;;;;;;;;;;;11.44;91.82;98926.21;1730740;83;20505;-64
2021/05/16 01:01:33;;;;;;;;;;;;;;;11.42;92.62;98933.50;1726917;83;20169;-65
2021/05/16 01:04:00;;;;;;;;;;;;;;;11.38;93.16;98934.03;1696026;82;20193;-65
2021/05/16 01:06:27;;;;;;;;;;;;;;;11.35;94.06;98933.04;1727108;83;20164;-65
2021/05/16 01:08:57;;;;;;;;;;;;;;;11.38;95.22;98927.41;1723041;82;20518;-65
2021/05/16 01:11:22;;;;;;;;;;;;;;;11.41;95.01;98930.55;1730763;82;20163;-65
2021/05/16 01:13:50;;;;;;;;;;;;;;;11.41;94.44;98927.08;1690344;83;20168;-65
2021/05/16 01:16:18;;;;;;;;;;;;;;;11.36;93.68;98927.58;1721201;82;20136;-64
2021/05/16 01:18:45;;;;;;;;;;;;;;;11.35;94.04;98927.27;1721040;83;20235;-65
2021/05/16 01:21:16;;;;;;;;;;;;;;;11.37;95.22;98929.72;1703575;82;20168;-64
2021/05/16 01:23:47;;;;;;;;;;;;;;;11.38;95.37;98929.55;1723948;82;20477;-65
2021/05/16 01:26:15;;;;;;;;;;;;;;;11.38;96.02;98929.55;1722787;82;20152;-65
2021/05/16 01:28:43;;;;;;;;;;;;;;;11.40;96.56;98934.17;1720887;83;20179;-65
2021/05/16 01:31:14;;;;;;;;;;;;;;;11.42;96.87;98932.18;1731052;82;20514;-65
2021/05/16 01:33:41;;;;;;;;;;;;;;;11.46;97.15;98926.89;1715167;83;20187;-64
2021/05/16 01:36:07;;;;;;;;;;;;;;;11.52;97.17;98928.50;1719190;82;20176;-65
2021/05/16 01:38:35;;;;;;;;;;;;;;;11.54;97.09;98923.38;1715712;82;20454;-65
2021/05/16 01:41:02;;;;;;;;;;;;;;;11.58;97.18;98922.54;1720267;82;20159;-65
2021/05/16 01:43:37;;;;;;;;;;;;;;;11.58;97.28;98926.52;1719784;83;20183;-65
2021/05/16 01:46:04;;;;;;;;;;;;;;;11.58;97.34;98929.98;1715067;82;20192;-64
2021/05/16 01:48:30;;;;;;;;;;;;;;;11.59;97.20;98924.17;1721059;82;20152;-65
2021/05/16 01:50:58;;;;;;;;;;;;;;;11.57;97.15;98934.93;1715060;82;20162;-64
2021/05/16 01:53:26;;;;;;;;;;;;;;;11.56;96.83;98938.59;1721206;82;20171;-64
2021/05/16 01:55:53;;;;;;;;;;;;;;;11.57;97.16;98932.79;1732510;82;20167;-65
2021/05/16 01:58:20;;;;;;;;;;;;;;;11.56;97.03;98937.27;1693085;83;20189;-65
2021/05/16 02:00:47;;;;;;;;;;;;;;;11.53;96.34;98940.76;1715010;82;20469;-65
2021/05/16 02:03:15;;;;;;;;;;;;;;;11.47;96.18;98938.30;1713782;82;20144;-65
2021/05/16 02:05:44;;;;;;;;;;;;;;;11.41;96.63;98941.14;1702754;83;20167;-65
2021/05/16 02:08:11;;;;;;;;;;;;;;;11.35;96.52;98948.92;1727046;82;20218;-65
2021/05/16 02:10:40;;;;;;;;;;;;;;;11.30;96.89;98949.92;1695909;83;20546;-65
2021/05/16 02:13:11;;;;;;;;;;;;;;;11.25;97.87;98951.77;1722934;82;20152;-64
2021/05/16 02:15:40;;;;;;;;;;;;;;;11.21;96.90;98954.44;1726366;82;20164;-63
2021/05/16 02:18:08;;;;;;;;;;;;;;;11.19;97.72;98959.89;1721358;82;20172;-64
2021/05/16 02:20:36;;;;;;;;;;;;;;;11.21;98.79;98963.70;1698991;83;20500;-64
2021/05/16 02:23:03;;;;;;;;;;;;;;;11.23;99.40;98960.38;1718564;82;20474;-64
2021/05/16 02:25:31;;;;;;;;;;;;;;;11.24;98.76;98954.08;1690168;83;20219;-63
2021/05/16 02:27:58;;;;;;;;;;;;;;;11.24;99.55;98956.72;1695910;83;20533;-63
2021/05/16 02:30:25;;;;;;;;;;;;;;;11.26;99.94;98952.94;1695355;83;20211;-64
2021/05/16 02:32:52;;;;;;;;;;;;;;;11.31;99.67;98959.53;1730273;82;20482;-63
2021/05/16 02:35:18;;;;;;;;;;;;;;;11.35;99.51;98963.01;1730966;82;20219;-64
2021/05/16 02:37:46;;;;;;;;;;;;;;;11.40;99.83;98965.94;1722560;82;20163;-64
2021/05/16 02:40:14;;;;;;;;;;;;;;;11.43;99.91;98959.50;1725116;83;20144;-64
2021/05/16 02:42:41;;;;;;;;;;;;;;;11.48;99.88;98967.73;1677262;82;20205;-65
2021/05/16 02:45:11;;;;;;;;;;;;;;;11.51;99.46;98967.91;1704221;83;20202;-63
2021/05/16 02:47:37;;;;;;;;;;;;;;;11.53;98.73;98970.70;1687358;83;20519;-63
2021/05/16 02:50:06;;;;;;;;;;;;;;;11.57;98.60;98975.16;1718892;82;20227;-63
2021/05/16 02:52:34;;;;;;;;;;;;;;;11.61;98.64;98971.16;1710614;83;20206;-64
2021/05/16 02:55:02;;;;;;;;;;;;;;;11.67;98.48;98979.77;1719089;82;20151;-64
2021/05/16 02:57:28;;;;;;;;;;;;;;;11.65;98.05;98970.66;1714882;82;20170;-64
2021/05/16 02:59:56;;;;;;;;;;;;;;;11.67;98.45;98973.14;1721102;82;20164;-64
2021/05/16 03:02:24;;;;;;;;;;;;;;;11.71;98.37;98976.25;1698089;82;20177;-64
2021/05/16 03:04:50;;;;;;;;;;;;;;;11.74;97.90;98974.59;1713858;82;20466;-64
2021/05/16 03:07:17;;;;;;;;;;;;;;;11.75;97.76;98975.75;1691542;82;20152;-64
2021/05/16 03:09:45;;;;;;;;;;;;;;;11.79;97.43;98975.72;1694305;82;20271;-64
2021/05/16 03:12:13;;;;;;;;;;;;;;;11.82;97.26;98978.03;1727073;82;20175;-64
2021/05/16 03:14:40;;;;;;;;;;;;;;;11.83;97.62;98982.31;1721121;82;20152;-64
2021/05/16 03:17:06;;;;;;;;;;;;;;;11.86;97.78;98982.48;1725535;83;20495;-64
2021/05/16 03:19:33;;;;;;;;;;;;;;;11.88;97.48;98986.27;1728341;82;20148;-64
2021/05/16 03:22:01;;;;;;;;;;;;;;;11.90;97.74;98988.30;1716113;82;20155;-65
2021/05/16 03:24:29;;;;;;;;;;;;;;;11.89;97.79;98984.77;1699485;83;20155;-64
2021/05/16 03:26:57;;;;;;;;;;;;;;;11.94;97.83;98979.00;1726617;82;20490;-64
2021/05/16 03:29:24;;;;;;;;;;;;;;;12.00;97.81;98979.63;1725105;82;20133;-64
2021/05/16 03:31:51;;;;;;;;;;;;;;;12.04;97.89;98977.79;1717900;83;20159;-64
2021/05/16 03:34:17;;;;;;;;;;;;;;;12.09;97.50;98983.06;1727132;82;20592;-64
2021/05/16 03:36:44;;;;;;;;;;;;;;;12.10;97.17;98982.04;1733026;82;20143;-64
2021/05/16 03:39:10;;;;;;;;;;;;;;;12.12;97.23;98991.48;1721042;82;20163;-64
2021/05/16 03:41:36;;;;;;;;;;;;;;;12.13;97.16;98993.63;1726799;82;20148;-64
2021/05/16 03:44:04;;;;;;;;;;;;;;;12.16;96.83;99000.73;1723557;82;20191;-64
2021/05/16 03:46:30;;;;;;;;;;;;;;;12.24;96.61;99001.19;1672467;82;20152;-64
2021/05/16 03:48:59;;;;;;;;;;;;;;;12.29;96.69;99009.44;1725091;82;20187;-64
2021/05/16 03:51:26;;;;;;;;;;;;;;;12.32;96.68;99006.92;1693813;82;20203;-64
2021/05/16 03:53:53;;;;;;;;;;;;;;;12.35;96.64;99020.66;1715236;82;20148;-64
2021/05/16 03:56:19;;;;;;;;;;;;;;;12.39;96.73;99025.11;1723848;82;20163;-63
2021/05/16 03:58:46;;;;;;;;;;;;;;;12.43;97.07;99017.13;1716298;82;20159;-64
2021/05/16 04:01:13;;;;;;;;;;;;;;;12.50;96.84;99023.38;1699135;83;20181;-64
2021/05/16 04:03:39;;;;;;;;;;;;;;;12.57;97.06;99024.84;1715200;82;20473;-64
2021/05/16 04:06:06;;;;;;;;;;;;;;;12.62;96.93;99021.13;1701778;82;20163;-64
2021/05/16 04:08:32;;;;;;;;;;;;;;;12.73;96.68;99025.20;1717168;82;20518;-64
2021/05/16 04:10:58;;;;;;;;;;;;;;;12.80;96.38;99018.19;1725206;82;20218;-64
2021/05/16 04:13:27;;;;;;;;;;;;;;;12.91;95.66;99015.11;1706458;82;20151;-64
2021/05/16 04:15:53;;;;;;;;;;;;;;;13.01;94.90;99020.16;1686148;83;20184;-64
2021/05/16 04:18:20;;;;;;;;;;;;;;;13.15;94.01;99014.06;1726005;82;20155;-64
2021/05/16 04:20:47;;;;;;;;;;;;;;;13.32;93.22;99009.95;1718040;82;20156;-64
2021/05/16 04:23:14;;;;;;;;;;;;;;;13.48;92.65;99011.08;1719201;82;20167;-64
2021/05/16 04:25:42;;;;;;;;;;;;;;;13.64;92.02;99006.09;1720452;82;20530;-64
2021/05/16 04:28:09;;;;;;;;;;;;;;;13.83;90.69;99002.55;1729561;82;20183;-64
2021/05/16 04:30:35;;;;;;;;;;;;;;;14.01;89.63;99006.97;1722492;82;20135;-64
2021/05/16 04:33:02;;;;;;;;;;;;;;;14.20;88.53;99008.20;1715704;82;20196;-64
2021/05/16 04:35:29;;;;;;;;;;;;;;;14.41;87.09;99008.73;1725090;82;20215;-65
2021/05/16 04:37:55;;;;;;;;;;;;;;;14.63;85.58;99001.61;1723260;82;20497;-66
2021/05/16 04:40:22;;;;;;;;;;;;;;;14.86;83.99;99002.72;1720756;82;20163;-65
2021/05/16 04:42:49;;;;;;;;;;;;;;;15.09;82.61;99003.84;1729873;82;20243;-65
2021/05/16 04:45:16;;;;;;;;;;;;;;;15.34;81.19;99004.20;1730738;83;20167;-65
2021/05/16 04:47:42;;;;;;;;;;;;;;;15.61;79.49;99003.53;1727776;83;20187;-65
2021/05/16 04:50:11;;;;;;;;;;;;;;;15.93;77.63;99005.25;1725181;82;20166;-65
2021/05/16 04:52:37;;;;;;;;;;;;;;;16.24;75.85;99004.74;1719020;82;20131;-65
2021/05/16 04:55:04;;;;;;;;;;;;;;;16.57;73.89;98995.47;1723611;82;20241;-65
2021/05/16 04:57:31;;;;;;;;;;;;;;;16.92;71.75;98993.15;1720279;82;20147;-65
2021/05/16 04:59:58;;;;;;;;;;;;;;;17.26;69.56;98992.92;1678842;83;20155;-64
2021/05/16 05:02:24;;;;;;;;;;;;;;;17.60;68.02;98990.98;1721364;82;20201;-65
2021/05/16 05:04:51;;;;;;;;;;;;;;;17.90;66.55;98998.52;1703549;82;20199;-65
2021/05/16 05:07:18;;;;;;;;;;;;;;;18.19;65.45;98993.64;1690696;83;20201;-65
2021/05/16 05:09:44;;;;;;;;;;;;;;;18.52;64.26;98993.45;1715810;83;20151;-65
2021/05/16 05:12:11;;;;;;;;;;;;;;;18.87;62.93;98988.16;1691179;83;20197;-65
2021/05/16 05:14:38;;;;;;;;;;;;;;;19.27;61.58;98995.86;1731068;83;20160;-65
2021/05/16 05:17:04;;;;;;;;;;;;;;;19.63;60.12;98989.69;1724951;82;20479;-65
2021/05/16 05:19:31;;;;;;;;;;;;;;;19.97;58.96;98988.29;1676178;82;20156;-64
2021/05/16 05:21:58;;;;;;;;;;;;;;;20.30;57.69;98980.30;1726217;82;20159;-65
2021/05/16 05:24:25;;;;;;;;;;;;;;;20.62;55.96;98976.56;1725790;82;20147;-65
2021/05/16 05:26:51;;;;;;;;;;;;;;;20.84;54.87;98974.15;1730420;82;20179;-65
2021/05/16 05:29:18;;;;;;;;;;;;;;;21.00;54.22;98968.06;1719442;82;20163;-65
2021/05/16 05:31:45;;;;;;;;;;;;;;;21.27;53.06;98967.61;1725066;82;20258;-65
2021/05/16 05:34:12;;;;;;;;;;;;;;;21.57;52.28;98964.78;1718940;82;20175;-65
2021/05/16 05:36:39;;;;;;;;;;;;;;;21.92;50.43;98966.57;1700743;83;20173;-66
2021/05/16 05:39:06;;;;;;;;;;;;;;;22.25;48.98;98965.02;1715135;82;20223;-65
2021/05/16 05:41:34;;;;;;;;;;;;;;;22.59;47.66;98971.28;1721005;83;20148;-66
2021/05/16 05:44:01;;;;;;;;;;;;;;;22.93;46.62;98971.81;1692589;83;20181;-66
2021/05/16 05:46:29;;;;;;;;;;;;;;;23.17;46.25;98964.39;1725384;82;20156;-66
2021/05/16 05:48:55;;;;;;;;;;;;;;;23.40;45.85;98964.19;1715061;82;20190;-66
2021/05/16 05:51:22;;;;;;;;;;;;;;;23.53;45.34;98972.96;1697818;82;20552;-65
2021/05/16 05:53:48;;;;;;;;;;;;;;;23.61;45.47;98975.24;1729057;82;20498;-66
2021/05/16 05:56:15;;;;;;;;;;;;;;;23.76;44.75;98970.03;1720637;82;20151;-66
2021/05/16 05:58:41;;;;;;;;;;;;;;;24.03;44.47;98967.41;1715334;82;20509;-66
2021/05/16 06:01:08;;;;;;;;;;;;;;;24.35;43.29;98972.56;1721083;82;20381;-66
2021/05/16 06:03:34;;;;;;;;;;;;;;;24.69;42.98;98981.30;1729134;82;20176;-66
2021/05/16 06:06:01;;;;;;;;;;;;;;;25.03;41.86;98972.09;1728696;82;20159;-66
2021/05/16 06:08:27;;;;;;;;;;;;;;;25.41;40.78;98976.95;1715133;82;20171;-66
2021/05/16 06:10:54;;;;;;;;;;;;;;;25.74;38.84;98980.62;1715068;83;20159;-67
2021/05/16 06:13:20;;;;;;;;;;;;;;;26.06;37.89;98976.16;1722252;82;20167;-66
2021/05/16 06:15:46;;;;;;;;;;;;;;;26.36;37.50;98979.46;1717588;82;20136;-65
2021/05/16 06:18:13;;;;;;;;;;;;;;;26.73;36.51;98977.89;1727067;82;20155;-65
2021/05/16 06:20:39;;;;;;;;;;;;;;;27.07;35.66;98981.94;1720072;82;20183;-66
2021/05/16 06:23:08;;;;;;;;;;;;;;;27.42;35.45;98979.72;1724228;82;20135;-65
2021/05/16 06:25:34;;;;;;;;;;;;;;;27.85;34.58;98984.70;1694673;83;20179;-65
2021/05/16 06:28:00;;;;;;;;;;;;;;;28.22;34.23;98987.52;1736396;83;20167;-65
2021/05/16 06:30:27;;;;;;;;;;;;;;;28.57;32.92;98989.78;1715640;82;20609;-65
2021/05/16 06:32:54;;;;;;;;;;;;;;;28.77;32.86;98990.97;1715057;82;20171;-65
2021/05/16 06:35:20;;;;;;;;;;;;;;;29.00;31.84;98993.48;1700160;82;20171;-65
2021/05/16 06:37:48;;;;;;;;;;;;;;;29.25;31.75;98994.91;1722918;82;20139;-65
2021/05/16 06:40:15;;;;;;;;;;;;;;;29.47;31.21;98988.97;1715912;82;20167;-65
2021/05/16 06:42:42;;;;;;;;;;;;;;;29.40;31.03;98987.41;1692381;83;20496;-66
2021/05/16 06:45:10;;;;;;;;;;;;;;;29.51;31.04;98981.83;1731056;82;20152;-65
2021/05/16 06:47:37;;;;;;;;;;;;;;;29.83;30.82;98983.91;1719183;82;20167;-65
2021/05/16 06:50:06;;;;;;;;;;;;;;;30.28;29.33;98979.48;1722935;82;20159;-66
2021/05/16 06:52:32;;;;;;;;;;;;;;;30.70;28.98;98981.31;1728630;82;20159;-65
2021/05/16 06:54:58;;;;;;;;;;;;;;;31.22;28.29;98981.80;1721074;82;20164;-65
2021/05/16 06:57:25;;;;;;;;;;;;;;;31.65;27.06;98991.12;1728756;82;20172;-63
2021/05/16 06:59:52;;;;;;;;;;;;;;;32.00;26.82;98987.37;1733059;82;20505;-65
2021/05/16 07:02:18;;;;;;;;;;;;;;;32.23;26.20;98982.80;1727063;83;20230;-65
2021/05/16 07:04:47;;;;;;;;;;;;;;;32.44;25.78;98986.66;1715150;82;20179;-66
2021/05/16 07:07:13;;;;;;;;;;;;;;;32.73;24.66;98990.11;1694433;83;20131;-65
2021/05/16 07:09:42;;;;;;;;;;;;;;;32.94;24.17;98991.77;1728392;82;20167;-65
2021/05/16 07:12:10;;;;;;;;;;;;;;;33.13;23.81;98988.86;1715054;82;20147;-65
2021/05/16 07:14:38;;;;;;;;;;;;;;;33.26;23.11;98984.64;1723692;83;20143;-65
2021/05/16 07:17:04;;;;;;;;;;;;;;;33.12;23.79;98988.59;1701465;83;20486;-65
2021/05/16 07:19:31;;;;;;;;;;;;;;;33.32;22.97;98988.05;1718632;83;20258;-65
2021/05/16 07:21:57;;;;;;;;;;;;;;;33.64;22.76;98999.23;1701308;83;20144;-66
2021/05/16 07:24:24;;;;;;;;;;;;;;;34.00;22.42;98989.14;1723043;83;20159;-65
2021/05/16 07:26:51;;;;;;;;;;;;;;;34.29;21.88;98989.13;1727991;82;20223;-65
2021/05/16 07:29:17;;;;;;;;;;;;;;;34.55;21.81;98987.17;1720521;82;20482;-65
2021/05/16 07:31:44;;;;;;;;;;;;;;;34.90;21.78;98992.65;1710322;83;20163;-65
2021/05/16 07:34:10;;;;;;;;;;;;;;;35.11;20.79;99000.16;1722420;82;20135;-65
2021/05/16 07:36:37;;;;;;;;;;;;;;;35.14;21.02;98995.39;1692093;83;20161;-67
2021/05/16 07:39:04;;;;;;;;;;;;;;;35.15;20.92;98997.81;1685205;82;20165;-65
2021/05/16 07:41:30;;;;;;;;;;;;;;;35.28;20.52;98996.03;1698349;83;20173;-67
2021/05/16 07:43:56;;;;;;;;;;;;;;;35.39;20.05;99011.59;1717228;82;20155;-66
2021/05/16 07:46:22;;;;;;;;;;;;;;;35.33;20.48;99002.72;1728505;82;20176;-66
2021/05/16 07:48:49;;;;;;;;;;;;;;;35.49;20.65;98996.66;1731643;82;20135;-66
2021/05/16 07:51:16;;;;;;;;;;;;;;;35.70;20.23;98990.66;1721765;82;20175;-64
2021/05/16 07:53:43;;;;;;;;;;;;;;;35.85;20.25;98987.91;1728694;83;20172;-64
2021/05/16 07:56:10;;;;;;;;;;;;;;;35.91;20.13;98983.02;1718845;82;20178;-65
2021/05/16 07:58:37;;;;;;;;;;;;;;;36.05;20.32;98981.40;1720829;82;20171;-67
2021/05/16 08:01:04;;;;;;;;;;;;;;;36.22;20.21;98983.23;1715121;82;20490;-65
2021/05/16 08:03:31;;;;;;;;;;;;;;;36.32;19.48;98975.94;1728054;82;20151;-66
2021/05/16 08:05:58;;;;;;;;;;;;;;;36.46;19.24;98972.92;1730242;82;20160;-66
2021/05/16 08:08:24;;;;;;;;;;;;;;;36.45;19.29;98966.59;1722235;82;20151;-65
2021/05/16 08:10:52;;;;;;;;;;;;;;;36.39;19.80;98972.08;1721152;82;20167;-65
2021/05/16 08:13:19;;;;;;;;;;;;;;;36.57;20.07;98974.66;1718497;82;20171;-66
2021/05/16 08:15:46;;;;;;;;;;;;;;;36.85;19.12;98971.58;1718988;82;20502;-66
2021/05/16 08:18:12;;;;;;;;;;;;;;;37.01;19.27;98973.09;1702121;83;20552;-67
2021/05/16 08:20:39;;;;;;;;;;;;;;;37.14;18.71;98979.45;1699524;82;20147;-67
2021/05/16 08:23:05;;;;;;;;;;;;;;;36.90;18.32;98968.61;1714980;82;20509;-66
2021/05/16 08:25:33;;;;;;;;;;;;;;;36.59;19.01;98980.66;1725050;82;20215;-66
2021/05/16 08:28:00;;;;;;;;;;;;;;;36.53;18.70;98973.98;1697696;83;20207;-66
2021/05/16 08:30:28;;;;;;;;;;;;;;;36.69;18.52;98976.12;1695532;83;20172;-66
2021/05/16 08:32:55;;;;;;;;;;;;;;;36.67;18.39;98968.19;1721058;82;20147;-66
2021/05/16 08:35:22;;;;;;;;;;;;;;;36.77;18.79;98975.21;1717091;82;20143;-66
2021/05/16 08:37:49;;;;;;;;;;;;;;;36.93;18.24;98979.51;1722644;82;20188;-66
2021/05/16 08:40:17;;;;;;;;;;;;;;;36.96;18.28;98986.27;1730353;83;20227;-66
2021/05/16 08:42:44;;;;;;;;;;;;;;;36.73;18.36;98979.80;1695739;83;20159;-66
2021/05/16 08:45:13;;;;;;;;;;;;;;;36.58;18.57;98974.91;1719114;82;20163;-65
2021/05/16 08:47:41;;;;;;;;;;;;;;;36.51;18.68;98977.64;1706411;83;20213;-65
2021/05/16 08:50:09;;;;;;;;;;;;;;;36.64;18.40;98968.03;1716759;82;20155;-68
2021/05/16 08:52:36;;;;;;;;;;;;;;;36.86;17.81;98967.66;1722659;82;20479;-66
2021/05/16 08:55:03;;;;;;;;;;;;;;;36.94;17.96;98962.41;1728264;82;20163;-66
2021/05/16 08:57:30;;;;;;;;;;;;;;;37.14;18.07;98957.97;1716087;83;20148;-64
2021/05/16 09:00:18;;;;;;;;;;;;;;;37.40;18.14;98956.28;1726313;83;20171;-67
2021/05/16 09:03:14;;;;;;;;;;;;;;;37.55;17.31;98955.58;1715173;82;20489;-65
2021/05/16 09:05:45;;;;;;;;;;;;;;;37.51;17.34;98958.80;1726533;82;20183;-65
2021/05/16 09:08:16;;;;;;;;;;;;;;;37.57;17.34;98953.27;1729028;82;20551;-68
2021/05/16 09:10:48;;;;;;;;;;;;;;;37.53;17.07;98954.33;1690836;83;20168;-66
2021/05/16 09:13:21;;;;;;;;;;;;;;;37.66;17.12;98951.23;1715044;82;20156;-67
2021/05/16 09:16:15;;;;;;;;;;;;;;;37.88;16.97;98953.27;1692682;83;20181;-66
2021/05/16 09:18:50;;;;;;;;;;;;;;;38.11;16.57;98942.53;1721139;83;20147;-66
2021/05/16 09:21:33;;;;;;;;;;;;;;;37.99;16.70;98947.49;1715064;83;20171;-66
2021/05/16 09:24:03;;;;;;;;;;;;;;;37.68;16.67;98954.44;1697083;83;20201;-65
2021/05/16 09:26:33;;;;;;;;;;;;;;;37.63;16.75;98942.84;1721127;82;20152;-66
2021/05/16 09:29:24;;;;;;;;;;;;;;;37.61;17.21;98937.67;1721006;83;20226;-64
2021/05/16 09:31:51;;;;;;;;;;;;;;;37.80;16.75;98940.40;1732849;82;20148;-66
2021/05/16 09:34:19;;;;;;;;;;;;;;;37.82;16.73;98928.44;1698245;83;20143;-65
2021/05/16 09:36:46;;;;;;;;;;;;;;;37.97;16.75;98936.01;1696592;82;20149;-65
2021/05/16 09:39:24;;;;;;;;;;;;;;;38.09;16.50;98934.39;1717845;82;20147;-66
2021/05/16 09:42:06;;;;;;;;;;;;;;;37.87;16.84;98940.62;1728591;82;20132;-65
2021/05/16 09:44:38;;;;;;;;;;;;;;;37.71;17.42;98937.80;1716016;82;20170;-67
2021/05/16 09:47:09;;;;;;;;;;;;;;;37.74;16.55;98930.77;1726836;82;21272;-66
2021/05/16 09:49:36;;;;;;;;;;;;;;;37.69;16.75;98938.72;1702229;83;20236;-65
2021/05/16 09:52:08;;;;;;;;;;;;;;;37.68;17.15;98937.89;1724292;82;20155;-66
2021/05/16 09:54:54;;;;;;;;;;;;;;;37.74;17.62;98933.52;1715107;82;20151;-66
2021/05/16 09:57:20;;;;;;;;;;;;;;;37.60;16.43;98938.80;1719023;82;20179;-66
2021/05/16 09:59:46;;;;;;;;;;;;;;;37.39;16.94;98946.39;1695935;82;20193;-66
2021/05/16 10:02:16;;;;;;;;;;;;;;;37.24;16.75;98947.33;1727172;82;20171;-65
2021/05/16 10:04:46;;;;;;;;;;;;;;;37.27;16.87;98939.73;1723586;82;20167;-65
2021/05/16 10:07:13;;;;;;;;;;;;;;;37.28;16.77;98928.95;1731456;83;20226;-66
2021/05/16 10:09:39;;;;;;;;;;;;;;;37.26;16.43;98922.98;1726778;82;20147;-64
2021/05/16 10:12:07;;;;;;;;;;;;;;;37.15;16.70;98924.59;1717224;82;20174;-67
2021/05/16 10:14:39;;;;;;;;;;;;;;;37.07;16.75;98915.81;1726284;82;20163;-66
2021/05/16 10:17:08;;;;;;;;;;;;;;;36.94;16.78;98920.50;1725018;83;20188;-66
2021/05/16 10:19:35;;;;;;;;;;;;;;;36.74;17.25;98916.70;1699679;83;20155;-66
2021/05/16 10:22:06;;;;;;;;;;;;;;;36.62;17.60;98909.75;1727696;83;20163;-65
2021/05/16 10:24:40;;;;;;;;;;;;;;;36.61;17.60;98902.66;1725196;82;20151;-66
2021/05/16 10:27:26;;;;;;;;;;;;;;;36.72;18.17;98901.90;1710497;82;20467;-65
2021/05/16 10:30:00;;;;;;;;;;;;;;;36.91;17.60;98902.72;1715821;82;20482;-66
2021/05/16 10:32:35;;;;;;;;;;;;;;;37.18;17.38;98912.06;1718753;83;20152;-65
2021/05/16 10:35:06;;;;;;;;;;;;;;;37.32;16.97;98911.70;1728950;82;20151;-66
2021/05/16 10:37:38;;;;;;;;;;;;;;;37.10;17.23;98904.91;1732962;82;20178;-65
2021/05/16 10:40:22;;;;;;;;;;;;;;;36.84;17.73;98898.94;1722377;82;20526;-66
2021/05/16 10:42:54;;;;;;;;;;;;;;;36.75;18.03;98897.65;1721109;82;20152;-66
2021/05/16 10:45:30;;;;;;;;;;;;;;;36.53;17.94;98894.15;1727478;82;20478;-66
2021/05/16 10:48:10;;;;;;;;;;;;;;;36.00;18.49;98890.25;1723932;82;20187;-66
2021/05/16 10:50:45;;;;;;;;;;;;;;;35.35;18.91;98895.20;1714863;82;20143;-68
2021/05/16 10:53:17;;;;;;;;;;;;;;;34.98;19.10;98882.53;1721020;82;20179;-66
2021/05/16 10:55:46;;;;;;;;;;;;;;;34.70;19.38;98887.08;1726703;82;20155;-67
2021/05/16 10:58:35;;;;;;;;;;;;;;;34.22;19.90;98879.31;1712709;82;20156;-66
2021/05/16 11:01:13;;;;;;;;;;;;;;;34.00;20.33;98872.61;1733828;83;20175;-65
2021/05/16 11:03:52;;;;;;;;;;;;;;;33.89;20.74;98868.58;1726499;82;20159;-66
2021/05/16 11:06:21;;;;;;;;;;;;;;;33.63;20.42;98869.33;1720974;82;20167;-67
2021/05/16 11:08:54;;;;;;;;;;;;;;;33.44;20.64;98863.61;1685387;82;20494;-66
2021/05/16 11:11:40;;;;;;;;;;;;;;;33.36;21.08;98861.64;1722853;82;20219;-65
2021/05/16 11:14:14;;;;;;;;;;;;;;;33.32;21.04;98847.55;1725650;82;20172;-66
2021/05/16 11:16:58;;;;;;;;;;;;;;;33.15;20.85;98848.32;1724807;82;20164;-67
2021/05/16 11:19:26;;;;;;;;;;;;;;;32.71;21.30;98835.80;1720977;82;20163;-67
2021/05/16 11:21:53;;;;;;;;;;;;;;;32.36;21.46;98843.81;1724935;82;20168;-66
2021/05/16 11:24:40;;;;;;;;;;;;;;;31.89;21.84;98847.38;1719016;82;20167;-67
2021/05/16 11:27:14;;;;;;;;;;;;;;;31.34;22.65;98843.65;1696894;83;20161;-65
2021/05/16 11:29:42;;;;;;;;;;;;;;;31.05;22.63;98839.91;1714993;83;20131;-65
2021/05/16 11:32:08;;;;;;;;;;;;;;;30.93;23.29;98837.66;1714925;83;20179;-65
2021/05/16 11:34:34;;;;;;;;;;;;;;;30.96;24.03;98826.72;1726936;82;20152;-65
2021/05/16 11:37:17;;;;;;;;;;;;;;;30.93;23.18;98828.67;1726826;82;20252;-66
2021/05/16 11:39:44;;;;;;;;;;;;;;;30.76;23.38;98819.70;1707017;82;20171;-65
2021/05/16 11:42:11;;;;;;;;;;;;;;;30.57;23.40;98815.13;1723358;83;20163;-66
2021/05/16 11:44:37;;;;;;;;;;;;;;;30.41;23.65;98819.24;1718990;82;20191;-65
2021/05/16 11:47:04;;;;;;;;;;;;;;;30.34;24.63;98814.20;1719067;82;20163;-66
2021/05/16 11:49:31;;;;;;;;;;;;;;;30.43;24.61;98814.86;1701411;82;20170;-67
2021/05/16 11:51:59;;;;;;;;;;;;;;;30.47;23.81;98815.33;1729684;82;20207;-66
2021/05/16 11:54:27;;;;;;;;;;;;;;;30.32;24.06;98815.05;1695981;83;20168;-67
2021/05/16 11:56:54;;;;;;;;;;;;;;;30.26;23.96;98814.03;1695843;82;20177;-65
2021/05/16 11:59:27;;;;;;;;;;;;;;;30.13;23.97;98804.17;1717409;82;20230;-65
2021/05/16 12:01:54;;;;;;;;;;;;;;;30.08;24.65;98800.73;1731174;82;20155;-65
2021/05/16 12:04:21;;;;;;;;;;;;;;;30.07;24.86;98803.19;1685723;83;20543;-66
2021/05/16 12:06:52;;;;;;;;;;;;;;;30.10;24.29;98800.67;1715343;82;20156;-65
2021/05/16 12:09:20;;;;;;;;;;;;;;;29.99;24.57;98802.75;1722528;82;20140;-66
2021/05/16 12:11:51;;;;;;;;;;;;;;;29.83;24.41;98800.01;1722844;82;20144;-67
2021/05/16 12:14:22;;;;;;;;;;;;;;;29.59;24.99;98795.45;1722011;82;20233;-64
2021/05/16 12:16:58;;;;;;;;;;;;;;;29.42;24.93;98796.50;1692045;83;20171;-65
2021/05/16 12:19:26;;;;;;;;;;;;;;;29.18;25.22;98795.22;1721090;83;20187;-67
2021/05/16 12:21:54;;;;;;;;;;;;;;;29.08;25.52;98790.66;1723462;82;20151;-66
2021/05/16 12:24:22;;;;;;;;;;;;;;;28.95;25.76;98786.73;1730215;82;20131;-67
2021/05/16 12:26:49;;;;;;;;;;;;;;;28.91;26.04;98786.27;1714639;82;20179;-65
2021/05/16 12:29:16;;;;;;;;;;;;;;;28.86;25.72;98783.07;1721209;82;20171;-66
2021/05/16 12:31:42;;;;;;;;;;;;;;;28.76;25.86;98778.54;1715223;82;20147;-67
2021/05/16 12:34:11;;;;;;;;;;;;;;;28.81;25.56;98777.69;1735096;82;20152;-66
2021/05/16 12:36:51;;;;;;;;;;;;;;;28.83;25.35;98770.04;1729672;82;20208;-66
2021/05/16 12:39:41;;;;;;;;;;;;;;;28.92;25.60;98766.94;1714987;82;20171;-67
2021/05/16 12:42:31;;;;;;;;;;;;;;;29.01;26.36;98760.27;1715080;82;20168;-66
2021/05/16 12:45:20;;;;;;;;;;;;;;;29.03;25.45;98760.82;1729108;82;20191;-65
2021/05/16 12:48:13;;;;;;;;;;;;;;;28.93;25.36;98760.94;1730720;82;20215;-63
2021/05/16 12:50:50;;;;;;;;;;;;;;;28.83;25.61;98756.44;1726604;82;20179;-65
2021/05/16 12:53:29;;;;;;;;;;;;;;;28.72;25.48;98754.94;1722604;82;20490;-65
2021/05/16 12:55:59;;;;;;;;;;;;;;;28.77;26.04;98754.33;1722276;82;20485;-65